sim
Sign-in with your pilot id or email,
or register
Callsign
Passwort

Schedule Details

Flight Number: OEO5984
Departure: Dar-es-Salaam Julius Nyerere International Airport (HTDA) at 03:55
Arrival: Munich Airport (EDDM) at 13:15

Weather Information
Getting current METAR information for HTDA 192000Z 09007KT 9999 FEW013 24/21 Q1015 NOSIG
Getting current METAR information for EDDM 192050Z VRB01KT CAVOK 11/10 Q1018 NOSIG

Schedule Frequency

Route Map